sensor_id;sensor_type;location;lat;lon;timestamp;P1;durP1;ratioP1;P2;durP2;ratioP2
11522;SDS011;70090;43.208;27.904;2024-02-04T00:00:11;19.37;;;14.40;;
11522;SDS011;70090;43.208;27.904;2024-02-04T00:02:39;15.30;;;12.30;;
11522;SDS011;70090;43.208;27.904;2024-02-04T00:05:07;22.63;;;14.50;;
11522;SDS011;70090;43.208;27.904;2024-02-04T00:07:34;17.63;;;12.43;;
11522;SDS011;70090;43.208;27.904;2024-02-04T00:10:01;15.87;;;11.13;;
11522;SDS011;70090;43.208;27.904;2024-02-04T00:12:29;17.77;;;11.80;;
11522;SDS011;70090;43.208;27.904;2024-02-04T00:14:56;18.93;;;13.10;;
11522;SDS011;70090;43.208;27.904;2024-02-04T00:17:23;18.63;;;10.77;;
11522;SDS011;70090;43.208;27.904;2024-02-04T00:19:55;20.60;;;14.53;;
11522;SDS011;70090;43.208;27.904;2024-02-04T00:22:23;19.30;;;14.60;;
11522;SDS011;70090;43.208;27.904;2024-02-04T00:24:50;17.57;;;12.97;;
11522;SDS011;70090;43.208;27.904;2024-02-04T00:27:17;18.80;;;12.17;;
11522;SDS011;70090;43.208;27.904;2024-02-04T00:29:44;22.73;;;15.33;;
11522;SDS011;70090;43.208;27.904;2024-02-04T00:32:11;24.30;;;16.13;;
11522;SDS011;70090;43.208;27.904;2024-02-04T00:34:39;25.23;;;18.50;;
11522;SDS011;70090;43.208;27.904;2024-02-04T00:37:05;25.07;;;15.50;;
11522;SDS011;70090;43.208;27.904;2024-02-04T00:39:34;20.57;;;14.23;;
11522;SDS011;70090;43.208;27.904;2024-02-04T00:42:01;18.77;;;13.20;;
11522;SDS011;70090;43.208;27.904;2024-02-04T00:44:28;18.97;;;13.80;;
11522;SDS011;70090;43.208;27.904;2024-02-04T00:46:55;17.50;;;11.90;;
11522;SDS011;70090;43.208;27.904;2024-02-04T00:49:22;17.47;;;12.87;;
11522;SDS011;70090;43.208;27.904;2024-02-04T00:51:51;18.37;;;12.23;;
11522;SDS011;70090;43.208;27.904;2024-02-04T00:54:18;18.13;;;12.53;;
11522;SDS011;70090;43.208;27.904;2024-02-04T00:56:47;14.63;;;11.37;;
11522;SDS011;70090;43.208;27.904;2024-02-04T00:59:14;17.73;;;13.10;;
11522;SDS011;70090;43.208;27.904;2024-02-04T01:01:41;19.63;;;13.63;;
11522;SDS011;70090;43.208;27.904;2024-02-04T01:04:08;17.93;;;13.50;;
11522;SDS011;70090;43.208;27.904;2024-02-04T01:06:35;21.50;;;15.60;;
11522;SDS011;70090;43.208;27.904;2024-02-04T01:09:02;19.90;;;14.13;;
11522;SDS011;70090;43.208;27.904;2024-02-04T01:11:29;17.27;;;12.73;;
11522;SDS011;70090;43.208;27.904;2024-02-04T01:13:58;19.43;;;14.20;;
11522;SDS011;70090;43.208;27.904;2024-02-04T01:16:25;20.17;;;14.93;;
11522;SDS011;70090;43.208;27.904;2024-02-04T01:18:52;20.03;;;14.80;;
11522;SDS011;70090;43.208;27.904;2024-02-04T01:21:19;16.70;;;13.97;;
11522;SDS011;70090;43.208;27.904;2024-02-04T01:23:46;19.40;;;14.07;;
11522;SDS011;70090;43.208;27.904;2024-02-04T01:26:13;18.37;;;12.60;;
11522;SDS011;70090;43.208;27.904;2024-02-04T01:28:40;17.17;;;12.90;;
11522;SDS011;70090;43.208;27.904;2024-02-04T01:31:09;25.40;;;17.20;;
11522;SDS011;70090;43.208;27.904;2024-02-04T01:33:36;22.30;;;16.30;;
11522;SDS011;70090;43.208;27.904;2024-02-04T01:36:03;17.37;;;14.20;;
11522;SDS011;70090;43.208;27.904;2024-02-04T01:38:31;14.83;;;12.30;;
11522;SDS011;70090;43.208;27.904;2024-02-04T01:40:58;14.47;;;11.30;;
11522;SDS011;70090;43.208;27.904;2024-02-04T01:43:25;15.10;;;11.77;;
11522;SDS011;70090;43.208;27.904;2024-02-04T01:45:52;13.70;;;11.33;;
11522;SDS011;70090;43.208;27.904;2024-02-04T01:48:21;15.20;;;11.17;;
11522;SDS011;70090;43.208;27.904;2024-02-04T01:50:48;17.73;;;12.10;;
11522;SDS011;70090;43.208;27.904;2024-02-04T01:53:17;23.53;;;16.73;;
11522;SDS011;70090;43.208;27.904;2024-02-04T01:55:48;56.40;;;35.63;;
11522;SDS011;70090;43.208;27.904;2024-02-04T01:58:15;48.30;;;29.43;;
11522;SDS011;70090;43.208;27.904;2024-02-04T02:00:43;30.37;;;21.17;;
11522;SDS011;70090;43.208;27.904;2024-02-04T02:03:12;22.67;;;16.53;;
11522;SDS011;70090;43.208;27.904;2024-02-04T02:05:42;22.07;;;15.27;;
11522;SDS011;70090;43.208;27.904;2024-02-04T02:08:09;21.80;;;16.37;;
11522;SDS011;70090;43.208;27.904;2024-02-04T02:10:36;16.73;;;12.20;;
11522;SDS011;70090;43.208;27.904;2024-02-04T02:13:06;16.77;;;12.93;;
11522;SDS011;70090;43.208;27.904;2024-02-04T02:15:39;14.50;;;12.43;;
11522;SDS011;70090;43.208;27.904;2024-02-04T02:18:14;16.90;;;13.10;;
11522;SDS011;70090;43.208;27.904;2024-02-04T02:23:43;19.30;;;14.20;;
11522;SDS011;70090;43.208;27.904;2024-02-04T02:26:21;18.30;;;13.77;;
11522;SDS011;70090;43.208;27.904;2024-02-04T02:28:49;18.67;;;14.13;;
11522;SDS011;70090;43.208;27.904;2024-02-04T02:31:16;20.67;;;14.70;;
11522;SDS011;70090;43.208;27.904;2024-02-04T02:33:43;20.63;;;12.67;;
11522;SDS011;70090;43.208;27.904;2024-02-04T02:36:11;18.90;;;14.00;;
11522;SDS011;70090;43.208;27.904;2024-02-04T02:38:46;17.27;;;12.80;;
11522;SDS011;70090;43.208;27.904;2024-02-04T02:41:20;19.37;;;14.87;;
11522;SDS011;70090;43.208;27.904;2024-02-04T02:43:49;20.70;;;15.10;;
11522;SDS011;70090;43.208;27.904;2024-02-04T02:46:18;18.33;;;14.80;;
11522;SDS011;70090;43.208;27.904;2024-02-04T02:48:46;18.80;;;14.83;;
11522;SDS011;70090;43.208;27.904;2024-02-04T02:51:13;17.47;;;13.90;;
11522;SDS011;70090;43.208;27.904;2024-02-04T02:53:40;18.17;;;14.57;;
11522;SDS011;70090;43.208;27.904;2024-02-04T02:56:07;18.60;;;14.70;;
11522;SDS011;70090;43.208;27.904;2024-02-04T02:58:35;19.20;;;15.83;;
11522;SDS011;70090;43.208;27.904;2024-02-04T03:01:02;17.07;;;14.70;;
11522;SDS011;70090;43.208;27.904;2024-02-04T03:03:29;17.53;;;14.77;;
11522;SDS011;70090;43.208;27.904;2024-02-04T03:05:56;17.87;;;14.97;;
11522;SDS011;70090;43.208;27.904;2024-02-04T03:08:23;19.50;;;14.90;;
11522;SDS011;70090;43.208;27.904;2024-02-04T03:10:51;19.47;;;14.10;;
11522;SDS011;70090;43.208;27.904;2024-02-04T03:13:18;19.20;;;14.50;;
11522;SDS011;70090;43.208;27.904;2024-02-04T03:15:46;17.07;;;12.83;;
11522;SDS011;70090;43.208;27.904;2024-02-04T03:18:13;17.17;;;13.20;;
11522;SDS011;70090;43.208;27.904;2024-02-04T03:20:40;18.67;;;14.00;;
11522;SDS011;70090;43.208;27.904;2024-02-04T03:23:07;18.57;;;14.43;;
11522;SDS011;70090;43.208;27.904;2024-02-04T03:25:34;22.67;;;15.80;;
11522;SDS011;70090;43.208;27.904;2024-02-04T03:28:01;18.63;;;14.27;;
11522;SDS011;70090;43.208;27.904;2024-02-04T03:30:28;23.13;;;17.07;;
11522;SDS011;70090;43.208;27.904;2024-02-04T03:32:57;18.70;;;14.40;;
11522;SDS011;70090;43.208;27.904;2024-02-04T03:35:24;19.13;;;15.30;;
11522;SDS011;70090;43.208;27.904;2024-02-04T03:37:51;17.50;;;14.37;;
11522;SDS011;70090;43.208;27.904;2024-02-04T03:40:18;17.83;;;14.53;;
11522;SDS011;70090;43.208;27.904;2024-02-04T03:42:49;19.10;;;15.37;;
11522;SDS011;70090;43.208;27.904;2024-02-04T03:45:16;19.47;;;14.07;;
11522;SDS011;70090;43.208;27.904;2024-02-04T03:47:43;19.33;;;15.77;;
11522;SDS011;70090;43.208;27.904;2024-02-04T03:50:12;20.17;;;15.53;;
11522;SDS011;70090;43.208;27.904;2024-02-04T03:52:39;19.50;;;16.00;;
11522;SDS011;70090;43.208;27.904;2024-02-04T03:55:06;17.67;;;14.67;;
11522;SDS011;70090;43.208;27.904;2024-02-04T03:57:33;19.70;;;13.30;;
11522;SDS011;70090;43.208;27.904;2024-02-04T04:00:00;15.27;;;12.50;;
11522;SDS011;70090;43.208;27.904;2024-02-04T04:02:28;15.50;;;12.97;;
11522;SDS011;70090;43.208;27.904;2024-02-04T04:04:55;15.33;;;12.10;;
11522;SDS011;70090;43.208;27.904;2024-02-04T04:07:23;14.87;;;11.97;;
11522;SDS011;70090;43.208;27.904;2024-02-04T04:09:50;11.83;;;9.63;;
11522;SDS011;70090;43.208;27.904;2024-02-04T04:12:17;14.43;;;12.27;;
11522;SDS011;70090;43.208;27.904;2024-02-04T04:14:44;14.63;;;12.07;;
11522;SDS011;70090;43.208;27.904;2024-02-04T04:17:11;15.97;;;12.63;;
11522;SDS011;70090;43.208;27.904;2024-02-04T04:19:38;18.50;;;13.73;;
11522;SDS011;70090;43.208;27.904;2024-02-04T04:22:06;16.70;;;13.67;;
11522;SDS011;70090;43.208;27.904;2024-02-04T04:24:34;14.67;;;11.73;;
11522;SDS011;70090;43.208;27.904;2024-02-04T04:27:01;15.57;;;12.00;;
11522;SDS011;70090;43.208;27.904;2024-02-04T04:29:28;15.07;;;12.50;;
11522;SDS011;70090;43.208;27.904;2024-02-04T04:31:55;14.83;;;12.43;;
11522;SDS011;70090;43.208;27.904;2024-02-04T04:34:22;16.53;;;14.33;;
11522;SDS011;70090;43.208;27.904;2024-02-04T04:36:49;16.77;;;14.20;;
11522;SDS011;70090;43.208;27.904;2024-02-04T04:39:16;15.83;;;13.63;;
11522;SDS011;70090;43.208;27.904;2024-02-04T04:41:44;16.10;;;13.63;;
11522;SDS011;70090;43.208;27.904;2024-02-04T04:44:12;18.90;;;14.40;;
11522;SDS011;70090;43.208;27.904;2024-02-04T04:46:39;20.93;;;14.80;;
11522;SDS011;70090;43.208;27.904;2024-02-04T04:49:06;19.40;;;14.53;;
11522;SDS011;70090;43.208;27.904;2024-02-04T04:51:33;18.40;;;14.57;;
11522;SDS011;70090;43.208;27.904;2024-02-04T04:54:00;19.07;;;14.97;;
11522;SDS011;70090;43.208;27.904;2024-02-04T04:56:27;17.10;;;14.37;;
11522;SDS011;70090;43.208;27.904;2024-02-04T04:58:55;19.40;;;14.43;;
11522;SDS011;70090;43.208;27.904;2024-02-04T05:01:22;14.97;;;12.53;;
11522;SDS011;70090;43.208;27.904;2024-02-04T05:03:49;18.33;;;12.93;;
11522;SDS011;70090;43.208;27.904;2024-02-04T05:06:16;12.90;;;11.17;;
11522;SDS011;70090;43.208;27.904;2024-02-04T05:08:43;16.07;;;12.07;;
11522;SDS011;70090;43.208;27.904;2024-02-04T05:11:10;15.10;;;12.13;;
11522;SDS011;70090;43.208;27.904;2024-02-04T05:13:38;18.27;;;12.80;;
11522;SDS011;70090;43.208;27.904;2024-02-04T05:16:07;15.77;;;12.57;;
11522;SDS011;70090;43.208;27.904;2024-02-04T05:18:34;16.13;;;12.50;;
11522;SDS011;70090;43.208;27.904;2024-02-04T05:21:01;18.70;;;13.80;;
11522;SDS011;70090;43.208;27.904;2024-02-04T05:23:28;19.07;;;13.53;;
11522;SDS011;70090;43.208;27.904;2024-02-04T05:25:55;21.77;;;15.60;;
11522;SDS011;70090;43.208;27.904;2024-02-04T05:28:22;19.70;;;16.30;;
11522;SDS011;70090;43.208;27.904;2024-02-04T05:30:49;17.73;;;14.17;;
11522;SDS011;70090;43.208;27.904;2024-02-04T05:33:17;16.50;;;13.53;;
11522;SDS011;70090;43.208;27.904;2024-02-04T05:35:44;15.63;;;12.80;;
11522;SDS011;70090;43.208;27.904;2024-02-04T05:38:11;14.43;;;12.33;;
11522;SDS011;70090;43.208;27.904;2024-02-04T05:40:39;14.27;;;12.30;;
11522;SDS011;70090;43.208;27.904;2024-02-04T05:43:06;15.20;;;13.13;;
11522;SDS011;70090;43.208;27.904;2024-02-04T05:45:35;14.43;;;12.67;;
11522;SDS011;70090;43.208;27.904;2024-02-04T05:48:04;18.77;;;14.70;;
11522;SDS011;70090;43.208;27.904;2024-02-04T05:50:33;18.70;;;15.60;;
11522;SDS011;70090;43.208;27.904;2024-02-04T05:53:00;20.10;;;16.00;;
11522;SDS011;70090;43.208;27.904;2024-02-04T05:55:27;22.37;;;16.23;;
11522;SDS011;70090;43.208;27.904;2024-02-04T05:57:54;22.37;;;18.10;;
11522;SDS011;70090;43.208;27.904;2024-02-04T06:00:21;21.90;;;18.03;;
11522;SDS011;70090;43.208;27.904;2024-02-04T06:02:48;21.83;;;18.10;;
11522;SDS011;70090;43.208;27.904;2024-02-04T06:05:15;23.67;;;18.97;;
11522;SDS011;70090;43.208;27.904;2024-02-04T06:07:43;34.77;;;28.77;;
11522;SDS011;70090;43.208;27.904;2024-02-04T06:10:10;27.33;;;22.77;;
11522;SDS011;70090;43.208;27.904;2024-02-04T06:12:38;29.20;;;24.27;;
11522;SDS011;70090;43.208;27.904;2024-02-04T06:15:09;30.47;;;23.67;;
11522;SDS011;70090;43.208;27.904;2024-02-04T06:17:39;24.23;;;20.63;;
11522;SDS011;70090;43.208;27.904;2024-02-04T06:20:06;26.20;;;21.77;;
11522;SDS011;70090;43.208;27.904;2024-02-04T06:22:34;30.00;;;24.03;;
11522;SDS011;70090;43.208;27.904;2024-02-04T06:25:02;30.60;;;24.50;;
11522;SDS011;70090;43.208;27.904;2024-02-04T06:27:30;31.50;;;25.13;;
11522;SDS011;70090;43.208;27.904;2024-02-04T06:29:57;29.40;;;23.20;;
11522;SDS011;70090;43.208;27.904;2024-02-04T06:32:24;34.90;;;26.40;;
11522;SDS011;70090;43.208;27.904;2024-02-04T06:34:51;28.97;;;23.93;;
11522;SDS011;70090;43.208;27.904;2024-02-04T06:37:20;25.87;;;21.33;;
11522;SDS011;70090;43.208;27.904;2024-02-04T06:39:47;27.37;;;22.87;;
11522;SDS011;70090;43.208;27.904;2024-02-04T06:42:16;40.20;;;31.07;;
11522;SDS011;70090;43.208;27.904;2024-02-04T06:44:43;35.53;;;28.73;;
11522;SDS011;70090;43.208;27.904;2024-02-04T06:47:11;40.07;;;28.23;;
11522;SDS011;70090;43.208;27.904;2024-02-04T06:49:39;42.23;;;30.10;;
11522;SDS011;70090;43.208;27.904;2024-02-04T06:52:06;28.40;;;22.37;;
11522;SDS011;70090;43.208;27.904;2024-02-04T06:54:33;29.40;;;24.33;;
11522;SDS011;70090;43.208;27.904;2024-02-04T06:57:01;23.40;;;19.67;;
11522;SDS011;70090;43.208;27.904;2024-02-04T06:59:29;22.03;;;17.87;;
11522;SDS011;70090;43.208;27.904;2024-02-04T07:01:56;19.17;;;16.00;;
11522;SDS011;70090;43.208;27.904;2024-02-04T07:04:23;24.93;;;17.33;;
11522;SDS011;70090;43.208;27.904;2024-02-04T07:06:50;25.47;;;19.50;;
11522;SDS011;70090;43.208;27.904;2024-02-04T07:09:18;25.07;;;19.43;;
11522;SDS011;70090;43.208;27.904;2024-02-04T07:11:45;23.57;;;18.33;;
11522;SDS011;70090;43.208;27.904;2024-02-04T07:14:13;16.67;;;13.70;;
11522;SDS011;70090;43.208;27.904;2024-02-04T07:16:41;18.10;;;14.83;;
11522;SDS011;70090;43.208;27.904;2024-02-04T07:19:08;14.77;;;12.07;;
11522;SDS011;70090;43.208;27.904;2024-02-04T07:21:35;17.97;;;14.17;;
11522;SDS011;70090;43.208;27.904;2024-02-04T07:24:02;16.10;;;13.00;;
11522;SDS011;70090;43.208;27.904;2024-02-04T07:26:29;14.53;;;12.47;;
11522;SDS011;70090;43.208;27.904;2024-02-04T07:28:56;18.03;;;13.20;;
11522;SDS011;70090;43.208;27.904;2024-02-04T07:31:24;17.23;;;14.27;;
11522;SDS011;70090;43.208;27.904;2024-02-04T07:33:52;16.10;;;13.70;;
11522;SDS011;70090;43.208;27.904;2024-02-04T07:36:19;14.23;;;12.50;;
11522;SDS011;70090;43.208;27.904;2024-02-04T07:38:46;12.13;;;10.57;;
11522;SDS011;70090;43.208;27.904;2024-02-04T07:41:14;12.47;;;10.53;;
11522;SDS011;70090;43.208;27.904;2024-02-04T07:43:42;15.13;;;12.17;;
11522;SDS011;70090;43.208;27.904;2024-02-04T07:46:09;16.47;;;12.90;;
11522;SDS011;70090;43.208;27.904;2024-02-04T07:48:36;14.73;;;12.50;;
11522;SDS011;70090;43.208;27.904;2024-02-04T07:51:04;12.07;;;10.43;;
11522;SDS011;70090;43.208;27.904;2024-02-04T07:53:33;13.67;;;10.00;;
11522;SDS011;70090;43.208;27.904;2024-02-04T07:56:01;14.67;;;13.00;;
11522;SDS011;70090;43.208;27.904;2024-02-04T07:58:28;12.30;;;10.90;;
11522;SDS011;70090;43.208;27.904;2024-02-04T08:00:55;11.97;;;10.50;;
11522;SDS011;70090;43.208;27.904;2024-02-04T08:03:22;12.33;;;10.13;;
11522;SDS011;70090;43.208;27.904;2024-02-04T08:05:50;10.23;;;8.67;;
11522;SDS011;70090;43.208;27.904;2024-02-04T08:08:18;13.07;;;10.53;;
11522;SDS011;70090;43.208;27.904;2024-02-04T08:10:45;11.40;;;8.83;;
11522;SDS011;70090;43.208;27.904;2024-02-04T08:13:12;11.20;;;9.93;;
11522;SDS011;70090;43.208;27.904;2024-02-04T08:15:39;13.30;;;9.60;;
11522;SDS011;70090;43.208;27.904;2024-02-04T08:18:06;11.27;;;9.07;;
11522;SDS011;70090;43.208;27.904;2024-02-04T08:20:33;11.03;;;8.47;;
11522;SDS011;70090;43.208;27.904;2024-02-04T08:23:00;10.70;;;8.27;;
11522;SDS011;70090;43.208;27.904;2024-02-04T08:25:29;10.70;;;8.83;;
11522;SDS011;70090;43.208;27.904;2024-02-04T08:27:56;9.90;;;8.90;;
11522;SDS011;70090;43.208;27.904;2024-02-04T08:30:23;14.47;;;11.23;;
11522;SDS011;70090;43.208;27.904;2024-02-04T08:32:50;9.87;;;8.20;;
11522;SDS011;70090;43.208;27.904;2024-02-04T08:35:17;10.83;;;8.60;;
11522;SDS011;70090;43.208;27.904;2024-02-04T08:37:44;11.10;;;8.93;;
11522;SDS011;70090;43.208;27.904;2024-02-04T08:40:11;11.13;;;8.27;;
11522;SDS011;70090;43.208;27.904;2024-02-04T08:42:39;10.63;;;8.57;;
11522;SDS011;70090;43.208;27.904;2024-02-04T08:45:07;9.67;;;8.20;;
11522;SDS011;70090;43.208;27.904;2024-02-04T08:47:34;11.53;;;9.83;;
11522;SDS011;70090;43.208;27.904;2024-02-04T08:50:01;9.27;;;8.20;;
11522;SDS011;70090;43.208;27.904;2024-02-04T08:52:29;9.97;;;8.53;;
11522;SDS011;70090;43.208;27.904;2024-02-04T08:54:56;10.47;;;8.33;;
11522;SDS011;70090;43.208;27.904;2024-02-04T08:57:23;11.63;;;8.33;;
11522;SDS011;70090;43.208;27.904;2024-02-04T08:59:52;10.73;;;8.53;;
11522;SDS011;70090;43.208;27.904;2024-02-04T09:02:19;10.73;;;7.93;;
11522;SDS011;70090;43.208;27.904;2024-02-04T09:04:46;11.97;;;7.90;;
11522;SDS011;70090;43.208;27.904;2024-02-04T09:07:13;9.73;;;8.40;;
11522;SDS011;70090;43.208;27.904;2024-02-04T09:09:40;9.50;;;8.07;;
11522;SDS011;70090;43.208;27.904;2024-02-04T09:12:07;11.27;;;8.13;;
11522;SDS011;70090;43.208;27.904;2024-02-04T09:14:36;10.83;;;8.67;;
11522;SDS011;70090;43.208;27.904;2024-02-04T09:17:04;13.17;;;10.20;;
11522;SDS011;70090;43.208;27.904;2024-02-04T09:19:31;11.40;;;9.37;;
11522;SDS011;70090;43.208;27.904;2024-02-04T09:21:58;11.73;;;9.63;;
11522;SDS011;70090;43.208;27.904;2024-02-04T09:24:27;10.77;;;8.40;;
11522;SDS011;70090;43.208;27.904;2024-02-04T09:26:54;9.93;;;8.03;;
11522;SDS011;70090;43.208;27.904;2024-02-04T09:29:21;10.47;;;9.13;;
11522;SDS011;70090;43.208;27.904;2024-02-04T09:31:48;9.90;;;8.17;;
11522;SDS011;70090;43.208;27.904;2024-02-04T09:34:18;11.93;;;9.73;;
11522;SDS011;70090;43.208;27.904;2024-02-04T09:36:45;10.63;;;9.53;;
11522;SDS011;70090;43.208;27.904;2024-02-04T09:39:12;11.23;;;8.33;;
11522;SDS011;70090;43.208;27.904;2024-02-04T09:41:39;14.17;;;11.50;;
11522;SDS011;70090;43.208;27.904;2024-02-04T09:44:06;12.23;;;9.97;;
11522;SDS011;70090;43.208;27.904;2024-02-04T09:46:35;15.27;;;12.03;;
11522;SDS011;70090;43.208;27.904;2024-02-04T09:49:02;15.63;;;13.90;;
11522;SDS011;70090;43.208;27.904;2024-02-04T09:51:31;13.63;;;10.20;;
11522;SDS011;70090;43.208;27.904;2024-02-04T09:54:00;9.50;;;7.50;;
11522;SDS011;70090;43.208;27.904;2024-02-04T09:56:31;11.97;;;9.23;;
11522;SDS011;70090;43.208;27.904;2024-02-04T09:59:01;10.60;;;9.00;;
11522;SDS011;70090;43.208;27.904;2024-02-04T10:01:28;12.03;;;8.87;;
11522;SDS011;70090;43.208;27.904;2024-02-04T10:03:55;11.50;;;9.20;;
11522;SDS011;70090;43.208;27.904;2024-02-04T10:06:22;11.00;;;8.67;;
11522;SDS011;70090;43.208;27.904;2024-02-04T10:08:51;8.63;;;7.70;;
11522;SDS011;70090;43.208;27.904;2024-02-04T10:11:18;8.57;;;6.40;;
11522;SDS011;70090;43.208;27.904;2024-02-04T10:13:45;8.77;;;7.07;;
11522;SDS011;70090;43.208;27.904;2024-02-04T10:16:13;10.33;;;7.77;;
11522;SDS011;70090;43.208;27.904;2024-02-04T10:18:41;9.40;;;8.03;;
11522;SDS011;70090;43.208;27.904;2024-02-04T10:21:16;9.83;;;8.30;;
11522;SDS011;70090;43.208;27.904;2024-02-04T10:23:44;10.00;;;8.07;;
11522;SDS011;70090;43.208;27.904;2024-02-04T10:26:13;9.27;;;8.23;;
11522;SDS011;70090;43.208;27.904;2024-02-04T10:28:40;8.03;;;7.07;;
11522;SDS011;70090;43.208;27.904;2024-02-04T10:31:08;7.87;;;6.97;;
11522;SDS011;70090;43.208;27.904;2024-02-04T10:33:36;10.53;;;8.50;;
11522;SDS011;70090;43.208;27.904;2024-02-04T10:36:04;13.77;;;9.63;;
11522;SDS011;70090;43.208;27.904;2024-02-04T10:38:31;9.07;;;8.17;;
11522;SDS011;70090;43.208;27.904;2024-02-04T10:41:00;8.80;;;7.90;;
11522;SDS011;70090;43.208;27.904;2024-02-04T10:43:31;8.07;;;5.77;;
11522;SDS011;70090;43.208;27.904;2024-02-04T10:46:01;8.73;;;6.90;;
11522;SDS011;70090;43.208;27.904;2024-02-04T10:48:36;7.50;;;5.57;;
11522;SDS011;70090;43.208;27.904;2024-02-04T10:51:09;9.07;;;8.03;;
11522;SDS011;70090;43.208;27.904;2024-02-04T10:53:40;10.67;;;9.57;;
11522;SDS011;70090;43.208;27.904;2024-02-04T10:56:11;15.20;;;13.13;;
11522;SDS011;70090;43.208;27.904;2024-02-04T10:58:42;9.07;;;8.07;;
11522;SDS011;70090;43.208;27.904;2024-02-04T11:01:11;8.73;;;7.40;;
11522;SDS011;70090;43.208;27.904;2024-02-04T11:03:39;7.63;;;6.83;;
11522;SDS011;70090;43.208;27.904;2024-02-04T11:06:07;11.73;;;7.97;;
11522;SDS011;70090;43.208;27.904;2024-02-04T11:08:35;10.90;;;9.27;;
11522;SDS011;70090;43.208;27.904;2024-02-04T11:11:02;10.27;;;7.83;;
11522;SDS011;70090;43.208;27.904;2024-02-04T11:13:29;8.40;;;6.50;;
11522;SDS011;70090;43.208;27.904;2024-02-04T11:15:58;7.70;;;6.53;;
11522;SDS011;70090;43.208;27.904;2024-02-04T11:18:35;11.30;;;8.10;;
11522;SDS011;70090;43.208;27.904;2024-02-04T11:21:25;9.23;;;6.80;;
11522;SDS011;70090;43.208;27.904;2024-02-04T11:24:18;9.43;;;7.53;;
11522;SDS011;70090;43.208;27.904;2024-02-04T11:26:56;7.50;;;5.63;;
11522;SDS011;70090;43.208;27.904;2024-02-04T11:29:23;6.63;;;5.90;;
11522;SDS011;70090;43.208;27.904;2024-02-04T11:31:53;10.77;;;8.17;;
11522;SDS011;70090;43.208;27.904;2024-02-04T11:34:20;7.20;;;5.10;;
11522;SDS011;70090;43.208;27.904;2024-02-04T11:36:49;8.53;;;6.73;;
11522;SDS011;70090;43.208;27.904;2024-02-04T11:39:18;6.80;;;6.10;;
11522;SDS011;70090;43.208;27.904;2024-02-04T11:41:47;8.33;;;6.40;;
11522;SDS011;70090;43.208;27.904;2024-02-04T11:44:20;6.83;;;4.70;;
11522;SDS011;70090;43.208;27.904;2024-02-04T11:46:47;7.17;;;5.80;;
11522;SDS011;70090;43.208;27.904;2024-02-04T11:49:16;7.10;;;6.40;;
11522;SDS011;70090;43.208;27.904;2024-02-04T11:51:47;7.70;;;6.13;;
11522;SDS011;70090;43.208;27.904;2024-02-04T11:54:15;7.80;;;6.50;;
11522;SDS011;70090;43.208;27.904;2024-02-04T11:56:44;7.67;;;6.77;;
11522;SDS011;70090;43.208;27.904;2024-02-04T11:59:18;6.23;;;5.07;;
11522;SDS011;70090;43.208;27.904;2024-02-04T12:01:46;7.87;;;5.77;;
11522;SDS011;70090;43.208;27.904;2024-02-04T12:04:15;8.97;;;7.63;;
11522;SDS011;70090;43.208;27.904;2024-02-04T12:06:43;9.83;;;6.07;;
11522;SDS011;70090;43.208;27.904;2024-02-04T12:09:11;7.80;;;6.70;;
11522;SDS011;70090;43.208;27.904;2024-02-04T12:11:39;5.83;;;5.07;;
11522;SDS011;70090;43.208;27.904;2024-02-04T12:14:06;7.00;;;6.30;;
11522;SDS011;70090;43.208;27.904;2024-02-04T12:16:34;6.57;;;5.80;;
11522;SDS011;70090;43.208;27.904;2024-02-04T12:19:01;6.60;;;5.23;;
11522;SDS011;70090;43.208;27.904;2024-02-04T12:21:31;7.57;;;5.93;;
11522;SDS011;70090;43.208;27.904;2024-02-04T12:23:59;7.17;;;5.97;;
11522;SDS011;70090;43.208;27.904;2024-02-04T12:26:26;7.83;;;5.73;;
11522;SDS011;70090;43.208;27.904;2024-02-04T12:28:53;7.23;;;5.63;;
11522;SDS011;70090;43.208;27.904;2024-02-04T12:31:21;7.80;;;6.67;;
11522;SDS011;70090;43.208;27.904;2024-02-04T12:33:52;8.37;;;7.23;;
11522;SDS011;70090;43.208;27.904;2024-02-04T12:36:22;7.93;;;6.80;;
11522;SDS011;70090;43.208;27.904;2024-02-04T12:38:53;6.97;;;6.27;;
11522;SDS011;70090;43.208;27.904;2024-02-04T12:41:21;6.80;;;6.07;;
11522;SDS011;70090;43.208;27.904;2024-02-04T12:43:52;7.20;;;6.50;;
11522;SDS011;70090;43.208;27.904;2024-02-04T12:46:20;7.87;;;6.70;;
11522;SDS011;70090;43.208;27.904;2024-02-04T12:48:51;7.90;;;7.10;;
11522;SDS011;70090;43.208;27.904;2024-02-04T12:51:25;8.47;;;7.50;;
11522;SDS011;70090;43.208;27.904;2024-02-04T12:54:04;11.27;;;9.50;;
11522;SDS011;70090;43.208;27.904;2024-02-04T12:56:42;11.27;;;9.50;;
11522;SDS011;70090;43.208;27.904;2024-02-04T12:59:11;11.03;;;7.90;;
11522;SDS011;70090;43.208;27.904;2024-02-04T13:01:38;7.57;;;6.50;;
11522;SDS011;70090;43.208;27.904;2024-02-04T13:04:05;7.17;;;5.87;;
11522;SDS011;70090;43.208;27.904;2024-02-04T13:06:37;5.67;;;5.07;;
11522;SDS011;70090;43.208;27.904;2024-02-04T13:09:06;8.00;;;6.60;;
11522;SDS011;70090;43.208;27.904;2024-02-04T13:11:34;11.33;;;10.13;;
11522;SDS011;70090;43.208;27.904;2024-02-04T13:14:01;5.90;;;5.17;;
11522;SDS011;70090;43.208;27.904;2024-02-04T13:16:28;7.83;;;6.40;;
11522;SDS011;70090;43.208;27.904;2024-02-04T13:18:56;10.30;;;8.43;;
11522;SDS011;70090;43.208;27.904;2024-02-04T13:21:23;7.93;;;5.93;;
11522;SDS011;70090;43.208;27.904;2024-02-04T13:23:50;11.80;;;7.10;;
11522;SDS011;70090;43.208;27.904;2024-02-04T13:26:19;8.03;;;6.23;;
11522;SDS011;70090;43.208;27.904;2024-02-04T13:28:46;8.53;;;7.13;;
11522;SDS011;70090;43.208;27.904;2024-02-04T13:31:13;10.00;;;7.77;;
11522;SDS011;70090;43.208;27.904;2024-02-04T13:33:40;7.87;;;6.50;;
11522;SDS011;70090;43.208;27.904;2024-02-04T13:36:08;6.33;;;5.67;;
11522;SDS011;70090;43.208;27.904;2024-02-04T13:38:35;6.70;;;5.70;;
11522;SDS011;70090;43.208;27.904;2024-02-04T13:41:02;9.23;;;6.97;;
11522;SDS011;70090;43.208;27.904;2024-02-04T13:43:33;12.20;;;10.10;;
11522;SDS011;70090;43.208;27.904;2024-02-04T13:46:00;12.60;;;9.10;;
11522;SDS011;70090;43.208;27.904;2024-02-04T13:48:27;10.27;;;7.20;;
11522;SDS011;70090;43.208;27.904;2024-02-04T13:50:55;9.93;;;7.30;;
11522;SDS011;70090;43.208;27.904;2024-02-04T13:53:22;10.13;;;7.67;;
11522;SDS011;70090;43.208;27.904;2024-02-04T13:55:49;6.57;;;5.50;;
11522;SDS011;70090;43.208;27.904;2024-02-04T13:58:16;9.07;;;7.13;;
11522;SDS011;70090;43.208;27.904;2024-02-04T14:00:45;8.60;;;7.70;;
11522;SDS011;70090;43.208;27.904;2024-02-04T14:03:12;11.10;;;8.93;;
11522;SDS011;70090;43.208;27.904;2024-02-04T14:05:40;15.53;;;11.13;;
11522;SDS011;70090;43.208;27.904;2024-02-04T14:08:08;15.53;;;13.07;;
11522;SDS011;70090;43.208;27.904;2024-02-04T14:10:35;10.13;;;8.07;;
11522;SDS011;70090;43.208;27.904;2024-02-04T14:13:03;14.40;;;10.17;;
11522;SDS011;70090;43.208;27.904;2024-02-04T14:15:30;12.00;;;10.07;;
11522;SDS011;70090;43.208;27.904;2024-02-04T14:17:59;9.67;;;8.50;;
11522;SDS011;70090;43.208;27.904;2024-02-04T14:20:26;9.83;;;7.80;;
11522;SDS011;70090;43.208;27.904;2024-02-04T14:22:53;7.47;;;6.70;;